sensor_id;sensor_type;location;lat;lon;timestamp;P1;durP1;ratioP1;P2;durP2;ratioP2
23068;SDS011;11702;50.856;4.348;2023-04-10T04:47:02;6.78;;;4.82;;
23068;SDS011;11702;50.856;4.348;2023-04-10T04:49:27;7.13;;;5.47;;
23068;SDS011;11702;50.856;4.348;2023-04-10T04:51:53;7.75;;;5.20;;
23068;SDS011;11702;50.856;4.348;2023-04-10T04:54:18;7.75;;;4.72;;
23068;SDS011;11702;50.856;4.348;2023-04-10T04:56:44;8.85;;;5.35;;
23068;SDS011;11702;50.856;4.348;2023-04-10T04:59:09;7.57;;;5.10;;
23068;SDS011;11702;50.856;4.348;2023-04-10T05:01:35;7.40;;;5.07;;
23068;SDS011;11702;50.856;4.348;2023-04-10T05:04:01;10.20;;;5.32;;
23068;SDS011;11702;50.856;4.348;2023-04-10T05:06:26;7.43;;;4.85;;
23068;SDS011;11702;50.856;4.348;2023-04-10T05:08:52;6.78;;;5.00;;
23068;SDS011;11702;50.856;4.348;2023-04-10T05:11:17;7.32;;;5.28;;
23068;SDS011;11702;50.856;4.348;2023-04-10T05:13:43;7.97;;;4.72;;
23068;SDS011;11702;50.856;4.348;2023-04-10T05:16:08;12.50;;;5.25;;
23068;SDS011;11702;50.856;4.348;2023-04-10T05:18:34;5.95;;;4.60;;
23068;SDS011;11702;50.856;4.348;2023-04-10T05:21:00;6.78;;;4.47;;
23068;SDS011;11702;50.856;4.348;2023-04-10T05:23:26;7.22;;;4.72;;
23068;SDS011;11702;50.856;4.348;2023-04-10T05:25:52;10.77;;;4.60;;
23068;SDS011;11702;50.856;4.348;2023-04-10T05:28:17;8.38;;;4.82;;
23068;SDS011;11702;50.856;4.348;2023-04-10T05:30:43;10.10;;;5.05;;
23068;SDS011;11702;50.856;4.348;2023-04-10T05:33:08;8.75;;;5.03;;
23068;SDS011;11702;50.856;4.348;2023-04-10T05:35:34;6.35;;;4.55;;
23068;SDS011;11702;50.856;4.348;2023-04-10T05:37:59;10.57;;;5.20;;
23068;SDS011;11702;50.856;4.348;2023-04-10T05:40:25;10.50;;;4.75;;
23068;SDS011;11702;50.856;4.348;2023-04-10T05:42:52;8.57;;;5.20;;
23068;SDS011;11702;50.856;4.348;2023-04-10T05:45:18;11.13;;;4.93;;
23068;SDS011;11702;50.856;4.348;2023-04-10T05:47:43;8.43;;;5.22;;
23068;SDS011;11702;50.856;4.348;2023-04-10T05:50:09;8.23;;;4.90;;
23068;SDS011;11702;50.856;4.348;2023-04-10T05:52:34;6.05;;;4.32;;
23068;SDS011;11702;50.856;4.348;2023-04-10T05:55:00;6.57;;;4.60;;
23068;SDS011;11702;50.856;4.348;2023-04-10T05:57:27;8.50;;;4.53;;
23068;SDS011;11702;50.856;4.348;2023-04-10T05:59:53;7.95;;;4.50;;
23068;SDS011;11702;50.856;4.348;2023-04-10T06:02:19;8.57;;;4.60;;
23068;SDS011;11702;50.856;4.348;2023-04-10T06:04:45;7.47;;;4.28;;
23068;SDS011;11702;50.856;4.348;2023-04-10T06:07:11;6.07;;;4.60;;
23068;SDS011;11702;50.856;4.348;2023-04-10T06:09:37;7.15;;;4.10;;
23068;SDS011;11702;50.856;4.348;2023-04-10T06:12:02;6.30;;;4.45;;
23068;SDS011;11702;50.856;4.348;2023-04-10T06:14:28;6.15;;;4.60;;
23068;SDS011;11702;50.856;4.348;2023-04-10T06:16:54;6.90;;;4.70;;
23068;SDS011;11702;50.856;4.348;2023-04-10T06:19:19;9.90;;;4.32;;
23068;SDS011;11702;50.856;4.348;2023-04-10T06:21:45;5.78;;;4.57;;
23068;SDS011;11702;50.856;4.348;2023-04-10T06:24:11;10.63;;;4.93;;
23068;SDS011;11702;50.856;4.348;2023-04-10T06:26:37;7.10;;;4.47;;
23068;SDS011;11702;50.856;4.348;2023-04-10T06:29:03;6.18;;;4.40;;
23068;SDS011;11702;50.856;4.348;2023-04-10T06:31:31;5.07;;;3.80;;
23068;SDS011;11702;50.856;4.348;2023-04-10T06:33:57;5.75;;;4.20;;
23068;SDS011;11702;50.856;4.348;2023-04-10T06:36:23;7.90;;;4.45;;
23068;SDS011;11702;50.856;4.348;2023-04-10T06:38:48;6.43;;;4.40;;
23068;SDS011;11702;50.856;4.348;2023-04-10T06:41:14;7.28;;;4.43;;
23068;SDS011;11702;50.856;4.348;2023-04-10T06:43:40;6.18;;;4.47;;
23068;SDS011;11702;50.856;4.348;2023-04-10T06:46:05;6.32;;;4.25;;
23068;SDS011;11702;50.856;4.348;2023-04-10T06:48:32;6.35;;;4.68;;
23068;SDS011;11702;50.856;4.348;2023-04-10T06:50:59;6.43;;;4.30;;
23068;SDS011;11702;50.856;4.348;2023-04-10T06:53:25;7.20;;;4.70;;
23068;SDS011;11702;50.856;4.348;2023-04-10T06:55:51;10.70;;;4.85;;
23068;SDS011;11702;50.856;4.348;2023-04-10T06:58:17;6.72;;;4.45;;
23068;SDS011;11702;50.856;4.348;2023-04-10T07:00:42;6.38;;;4.47;;
23068;SDS011;11702;50.856;4.348;2023-04-10T07:03:08;5.57;;;4.50;;
23068;SDS011;11702;50.856;4.348;2023-04-10T07:05:35;10.50;;;5.15;;
23068;SDS011;11702;50.856;4.348;2023-04-10T07:08:01;8.50;;;4.70;;
23068;SDS011;11702;50.856;4.348;2023-04-10T07:10:26;10.35;;;4.78;;
23068;SDS011;11702;50.856;4.348;2023-04-10T07:12:52;5.57;;;4.45;;
23068;SDS011;11702;50.856;4.348;2023-04-10T07:15:17;5.85;;;4.63;;
23068;SDS011;11702;50.856;4.348;2023-04-10T07:17:43;6.28;;;4.38;;
23068;SDS011;11702;50.856;4.348;2023-04-10T07:20:09;5.45;;;4.47;;
23068;SDS011;11702;50.856;4.348;2023-04-10T07:22:35;9.50;;;5.20;;
23068;SDS011;11702;50.856;4.348;2023-04-10T07:25:00;4.65;;;3.97;;
23068;SDS011;11702;50.856;4.348;2023-04-10T07:27:26;6.45;;;4.53;;
23068;SDS011;11702;50.856;4.348;2023-04-10T07:29:53;5.72;;;4.53;;
23068;SDS011;11702;50.856;4.348;2023-04-10T07:32:19;7.78;;;4.53;;
23068;SDS011;11702;50.856;4.348;2023-04-10T07:34:46;6.65;;;4.47;;
23068;SDS011;11702;50.856;4.348;2023-04-10T07:37:12;6.20;;;4.63;;
23068;SDS011;11702;50.856;4.348;2023-04-10T07:39:37;5.47;;;4.22;;
23068;SDS011;11702;50.856;4.348;2023-04-10T07:42:03;6.53;;;4.75;;
23068;SDS011;11702;50.856;4.348;2023-04-10T07:44:30;5.70;;;4.65;;
23068;SDS011;11702;50.856;4.348;2023-04-10T07:46:56;6.20;;;4.60;;
23068;SDS011;11702;50.856;4.348;2023-04-10T07:49:22;6.35;;;4.68;;
23068;SDS011;11702;50.856;4.348;2023-04-10T07:51:48;6.80;;;5.00;;
23068;SDS011;11702;50.856;4.348;2023-04-10T07:54:14;4.95;;;4.38;;
23068;SDS011;11702;50.856;4.348;2023-04-10T07:56:40;5.75;;;4.57;;
23068;SDS011;11702;50.856;4.348;2023-04-10T07:59:05;6.07;;;4.82;;
23068;SDS011;11702;50.856;4.348;2023-04-10T08:01:31;5.68;;;4.15;;
23068;SDS011;11702;50.856;4.348;2023-04-10T08:03:57;7.30;;;4.72;;
23068;SDS011;11702;50.856;4.348;2023-04-10T08:06:23;4.93;;;4.35;;
23068;SDS011;11702;50.856;4.348;2023-04-10T08:08:48;7.68;;;4.50;;
23068;SDS011;11702;50.856;4.348;2023-04-10T08:11:23;6.70;;;4.97;;
23068;SDS011;11702;50.856;4.348;2023-04-10T08:13:50;6.30;;;4.47;;
23068;SDS011;11702;50.856;4.348;2023-04-10T08:16:23;6.47;;;4.65;;
23068;SDS011;11702;50.856;4.348;2023-04-10T08:18:50;5.18;;;4.55;;
23068;SDS011;11702;50.856;4.348;2023-04-10T08:21:17;7.57;;;4.40;;
23068;SDS011;11702;50.856;4.348;2023-04-10T08:23:43;8.20;;;4.68;;
23068;SDS011;11702;50.856;4.348;2023-04-10T08:26:10;9.27;;;5.55;;
23068;SDS011;11702;50.856;4.348;2023-04-10T08:28:36;10.27;;;5.03;;
23068;SDS011;11702;50.856;4.348;2023-04-10T08:31:02;9.23;;;5.07;;
23068;SDS011;11702;50.856;4.348;2023-04-10T08:33:29;9.52;;;5.25;;
23068;SDS011;11702;50.856;4.348;2023-04-10T08:35:55;8.27;;;5.03;;
23068;SDS011;11702;50.856;4.348;2023-04-10T08:38:21;9.15;;;5.28;;
23068;SDS011;11702;50.856;4.348;2023-04-10T08:40:48;9.35;;;5.65;;
23068;SDS011;11702;50.856;4.348;2023-04-10T08:43:14;8.13;;;5.22;;
23068;SDS011;11702;50.856;4.348;2023-04-10T08:45:40;8.93;;;5.70;;
23068;SDS011;11702;50.856;4.348;2023-04-10T08:48:06;7.22;;;5.32;;
23068;SDS011;11702;50.856;4.348;2023-04-10T08:50:34;6.72;;;5.15;;
23068;SDS011;11702;50.856;4.348;2023-04-10T08:53:08;8.18;;;5.20;;
23068;SDS011;11702;50.856;4.348;2023-04-10T08:55:36;7.53;;;5.47;;
23068;SDS011;11702;50.856;4.348;2023-04-10T08:58:03;10.25;;;5.00;;
23068;SDS011;11702;50.856;4.348;2023-04-10T09:00:29;9.70;;;5.53;;
23068;SDS011;11702;50.856;4.348;2023-04-10T09:02:59;8.50;;;5.25;;
23068;SDS011;11702;50.856;4.348;2023-04-10T09:05:27;7.85;;;4.78;;
23068;SDS011;11702;50.856;4.348;2023-04-10T09:07:54;11.30;;;5.25;;
23068;SDS011;11702;50.856;4.348;2023-04-10T09:10:20;7.90;;;5.40;;
23068;SDS011;11702;50.856;4.348;2023-04-10T09:12:46;6.85;;;5.28;;
23068;SDS011;11702;50.856;4.348;2023-04-10T09:15:12;7.70;;;5.32;;
23068;SDS011;11702;50.856;4.348;2023-04-10T09:20:21;6.38;;;4.95;;
23068;SDS011;11702;50.856;4.348;2023-04-10T09:22:47;8.40;;;4.85;;
23068;SDS011;11702;50.856;4.348;2023-04-10T09:25:29;8.93;;;5.03;;
23068;SDS011;11702;50.856;4.348;2023-04-10T09:28:00;8.20;;;5.18;;
23068;SDS011;11702;50.856;4.348;2023-04-10T09:30:33;7.57;;;4.72;;
23068;SDS011;11702;50.856;4.348;2023-04-10T09:33:00;7.13;;;4.90;;
23068;SDS011;11702;50.856;4.348;2023-04-10T09:35:36;6.78;;;5.25;;
23068;SDS011;11702;50.856;4.348;2023-04-10T09:38:15;6.35;;;4.68;;
23068;SDS011;11702;50.856;4.348;2023-04-10T09:40:42;6.53;;;4.95;;
23068;SDS011;11702;50.856;4.348;2023-04-10T09:43:25;6.55;;;4.80;;
23068;SDS011;11702;50.856;4.348;2023-04-10T09:45:54;6.78;;;4.80;;
23068;SDS011;11702;50.856;4.348;2023-04-10T09:48:21;6.00;;;4.70;;
23068;SDS011;11702;50.856;4.348;2023-04-10T09:50:48;13.60;;;4.75;;
23068;SDS011;11702;50.856;4.348;2023-04-10T09:53:14;6.07;;;4.50;;
23068;SDS011;11702;50.856;4.348;2023-04-10T09:55:44;6.07;;;4.60;;
23068;SDS011;11702;50.856;4.348;2023-04-10T09:58:11;5.78;;;4.38;;
23068;SDS011;11702;50.856;4.348;2023-04-10T10:00:38;6.80;;;4.80;;
23068;SDS011;11702;50.856;4.348;2023-04-10T10:03:13;4.72;;;4.07;;
23068;SDS011;11702;50.856;4.348;2023-04-10T10:05:44;5.32;;;4.10;;
23068;SDS011;11702;50.856;4.348;2023-04-10T10:08:12;6.18;;;4.25;;
23068;SDS011;11702;50.856;4.348;2023-04-10T10:10:39;5.47;;;4.18;;
23068;SDS011;11702;50.856;4.348;2023-04-10T10:13:10;6.38;;;4.72;;
23068;SDS011;11702;50.856;4.348;2023-04-10T10:15:45;5.15;;;4.22;;
23068;SDS011;11702;50.856;4.348;2023-04-10T10:21:12;4.28;;;3.83;;
23068;SDS011;11702;50.856;4.348;2023-04-10T10:23:38;8.18;;;3.70;;
23068;SDS011;11702;50.856;4.348;2023-04-10T10:26:06;5.88;;;3.72;;
23068;SDS011;11702;50.856;4.348;2023-04-10T10:28:34;4.97;;;3.90;;
23068;SDS011;11702;50.856;4.348;2023-04-10T10:31:01;3.80;;;3.35;;
23068;SDS011;11702;50.856;4.348;2023-04-10T10:33:28;4.43;;;3.85;;
23068;SDS011;11702;50.856;4.348;2023-04-10T10:36:00;5.50;;;3.95;;
23068;SDS011;11702;50.856;4.348;2023-04-10T10:38:28;3.55;;;3.20;;
23068;SDS011;11702;50.856;4.348;2023-04-10T10:41:05;3.88;;;3.10;;
23068;SDS011;11702;50.856;4.348;2023-04-10T10:46:14;3.92;;;2.83;;
23068;SDS011;11702;50.856;4.348;2023-04-10T10:48:58;4.78;;;2.88;;
23068;SDS011;11702;50.856;4.348;2023-04-10T10:51:46;4.57;;;2.92;;
23068;SDS011;11702;50.856;4.348;2023-04-10T10:56:53;7.28;;;3.47;;
23068;SDS011;11702;50.856;4.348;2023-04-10T11:02:16;5.30;;;3.22;;
23068;SDS011;11702;50.856;4.348;2023-04-10T11:04:46;5.32;;;3.50;;
23068;SDS011;11702;50.856;4.348;2023-04-10T11:07:13;3.70;;;3.17;;
23068;SDS011;11702;50.856;4.348;2023-04-10T11:09:53;6.85;;;2.75;;
23068;SDS011;11702;50.856;4.348;2023-04-10T11:12:21;3.22;;;2.92;;
23068;SDS011;11702;50.856;4.348;2023-04-10T11:14:58;3.92;;;2.97;;
23068;SDS011;11702;50.856;4.348;2023-04-10T11:20:16;5.15;;;3.08;;
23068;SDS011;11702;50.856;4.348;2023-04-10T11:25:45;5.10;;;3.17;;
23068;SDS011;11702;50.856;4.348;2023-04-10T11:33:46;4.60;;;2.72;;
23068;SDS011;11702;50.856;4.348;2023-04-10T11:36:15;2.92;;;2.60;;
23068;SDS011;11702;50.856;4.348;2023-04-10T11:41:29;4.22;;;2.78;;
23068;SDS011;11702;50.856;4.348;2023-04-10T11:43:56;3.75;;;2.55;;
23068;SDS011;11702;50.856;4.348;2023-04-10T11:46:23;4.97;;;2.83;;
23068;SDS011;11702;50.856;4.348;2023-04-10T11:48:52;3.97;;;2.70;;
23068;SDS011;11702;50.856;4.348;2023-04-10T11:51:25;3.60;;;2.95;;
23068;SDS011;11702;50.856;4.348;2023-04-10T11:54:05;3.80;;;2.90;;
23068;SDS011;11702;50.856;4.348;2023-04-10T11:56:32;4.10;;;2.72;;
23068;SDS011;11702;50.856;4.348;2023-04-10T11:58:58;3.13;;;2.65;;
23068;SDS011;11702;50.856;4.348;2023-04-10T12:01:26;4.47;;;2.70;;
23068;SDS011;11702;50.856;4.348;2023-04-10T12:03:52;2.97;;;2.47;;
23068;SDS011;11702;50.856;4.348;2023-04-10T12:06:18;4.57;;;2.70;;
23068;SDS011;11702;50.856;4.348;2023-04-10T12:08:45;3.55;;;2.75;;
23068;SDS011;11702;50.856;4.348;2023-04-10T12:11:13;6.63;;;2.50;;
23068;SDS011;11702;50.856;4.348;2023-04-10T12:13:41;9.45;;;2.55;;
23068;SDS011;11702;50.856;4.348;2023-04-10T12:16:07;3.45;;;2.53;;
23068;SDS011;11702;50.856;4.348;2023-04-10T12:18:34;3.35;;;2.58;;
23068;SDS011;11702;50.856;4.348;2023-04-10T12:21:00;3.17;;;2.40;;
23068;SDS011;11702;50.856;4.348;2023-04-10T12:23:27;4.80;;;2.53;;
23068;SDS011;11702;50.856;4.348;2023-04-10T12:26:05;4.03;;;2.25;;
23068;SDS011;11702;50.856;4.348;2023-04-10T12:28:39;7.22;;;2.70;;
23068;SDS011;11702;50.856;4.348;2023-04-10T12:31:07;4.75;;;2.30;;
23068;SDS011;11702;50.856;4.348;2023-04-10T12:33:33;5.38;;;2.50;;
23068;SDS011;11702;50.856;4.348;2023-04-10T12:36:00;6.15;;;2.03;;
23068;SDS011;11702;50.856;4.348;2023-04-10T12:38:42;11.68;;;2.83;;
23068;SDS011;11702;50.856;4.348;2023-04-10T12:41:09;2.80;;;2.50;;
23068;SDS011;11702;50.856;4.348;2023-04-10T12:43:37;4.97;;;2.70;;
23068;SDS011;11702;50.856;4.348;2023-04-10T12:46:04;3.65;;;2.80;;
23068;SDS011;11702;50.856;4.348;2023-04-10T12:48:31;3.65;;;2.92;;
23068;SDS011;11702;50.856;4.348;2023-04-10T12:50:57;4.85;;;3.13;;
23068;SDS011;11702;50.856;4.348;2023-04-10T12:53:23;5.25;;;3.25;;
23068;SDS011;11702;50.856;4.348;2023-04-10T12:56:00;6.45;;;3.03;;
23068;SDS011;11702;50.856;4.348;2023-04-10T12:58:28;3.83;;;3.00;;
23068;SDS011;11702;50.856;4.348;2023-04-10T13:00:55;5.55;;;2.90;;
23068;SDS011;11702;50.856;4.348;2023-04-10T13:03:22;4.00;;;3.58;;
23068;SDS011;11702;50.856;4.348;2023-04-10T13:05:48;3.78;;;2.80;;
23068;SDS011;11702;50.856;4.348;2023-04-10T13:08:14;5.28;;;3.38;;
23068;SDS011;11702;50.856;4.348;2023-04-10T13:10:40;3.35;;;3.03;;
23068;SDS011;11702;50.856;4.348;2023-04-10T13:13:07;4.05;;;3.20;;
23068;SDS011;11702;50.856;4.348;2023-04-10T13:15:35;3.30;;;2.67;;
23068;SDS011;11702;50.856;4.348;2023-04-10T13:18:01;3.45;;;3.10;;
23068;SDS011;11702;50.856;4.348;2023-04-10T13:20:27;3.75;;;3.08;;
23068;SDS011;11702;50.856;4.348;2023-04-10T13:22:53;3.83;;;3.00;;
23068;SDS011;11702;50.856;4.348;2023-04-10T13:25:19;5.35;;;2.85;;
23068;SDS011;11702;50.856;4.348;2023-04-10T13:27:46;4.47;;;3.03;;
23068;SDS011;11702;50.856;4.348;2023-04-10T13:30:12;3.20;;;2.90;;
23068;SDS011;11702;50.856;4.348;2023-04-10T13:32:37;4.88;;;2.70;;
23068;SDS011;11702;50.856;4.348;2023-04-10T13:35:03;5.47;;;2.70;;
23068;SDS011;11702;50.856;4.348;2023-04-10T13:37:29;4.72;;;3.17;;
23068;SDS011;11702;50.856;4.348;2023-04-10T13:39:55;3.53;;;2.78;;
23068;SDS011;11702;50.856;4.348;2023-04-10T13:42:20;4.63;;;2.80;;
23068;SDS011;11702;50.856;4.348;2023-04-10T13:44:46;2.65;;;2.45;;
23068;SDS011;11702;50.856;4.348;2023-04-10T13:47:12;5.45;;;3.20;;
23068;SDS011;11702;50.856;4.348;2023-04-10T13:49:38;5.88;;;3.30;;
23068;SDS011;11702;50.856;4.348;2023-04-10T13:52:03;3.42;;;2.80;;
23068;SDS011;11702;50.856;4.348;2023-04-10T13:54:29;3.80;;;2.90;;
23068;SDS011;11702;50.856;4.348;2023-04-10T13:56:55;6.68;;;2.78;;
23068;SDS011;11702;50.856;4.348;2023-04-10T13:59:21;3.72;;;2.80;;
23068;SDS011;11702;50.856;4.348;2023-04-10T14:01:47;4.30;;;3.15;;
23068;SDS011;11702;50.856;4.348;2023-04-10T14:04:14;4.32;;;2.80;;
23068;SDS011;11702;50.856;4.348;2023-04-10T14:06:40;5.53;;;2.75;;
23068;SDS011;11702;50.856;4.348;2023-04-10T14:09:06;6.03;;;2.65;;
23068;SDS011;11702;50.856;4.348;2023-04-10T14:11:31;3.95;;;2.78;;
23068;SDS011;11702;50.856;4.348;2023-04-10T14:13:57;3.78;;;2.58;;
23068;SDS011;11702;50.856;4.348;2023-04-10T14:16:22;3.53;;;2.22;;
23068;SDS011;11702;50.856;4.348;2023-04-10T14:18:48;2.58;;;2.20;;
23068;SDS011;11702;50.856;4.348;2023-04-10T14:21:14;3.95;;;2.70;;
23068;SDS011;11702;50.856;4.348;2023-04-10T14:23:39;4.22;;;2.60;;
23068;SDS011;11702;50.856;4.348;2023-04-10T14:26:06;4.85;;;2.72;;
23068;SDS011;11702;50.856;4.348;2023-04-10T14:28:32;3.85;;;2.70;;
23068;SDS011;11702;50.856;4.348;2023-04-10T14:30:57;3.05;;;2.40;;
23068;SDS011;11702;50.856;4.348;2023-04-10T14:33:23;3.83;;;2.60;;
23068;SDS011;11702;50.856;4.348;2023-04-10T14:35:49;8.82;;;2.80;;
23068;SDS011;11702;50.856;4.348;2023-04-10T14:38:15;5.32;;;2.65;;
23068;SDS011;11702;50.856;4.348;2023-04-10T14:40:41;5.75;;;3.30;;
23068;SDS011;11702;50.856;4.348;2023-04-10T14:43:07;4.07;;;2.40;;
23068;SDS011;11702;50.856;4.348;2023-04-10T14:45:33;8.00;;;2.50;;
23068;SDS011;11702;50.856;4.348;2023-04-10T14:47:59;6.32;;;2.85;;
23068;SDS011;11702;50.856;4.348;2023-04-10T14:50:24;4.50;;;2.97;;
23068;SDS011;11702;50.856;4.348;2023-04-10T14:52:55;3.65;;;2.53;;
23068;SDS011;11702;50.856;4.348;2023-04-10T14:55:23;4.28;;;2.60;;
23068;SDS011;11702;50.856;4.348;2023-04-10T14:57:49;6.25;;;2.67;;
23068;SDS011;11702;50.856;4.348;2023-04-10T15:00:15;6.25;;;3.00;;
23068;SDS011;11702;50.856;4.348;2023-04-10T15:02:41;4.45;;;2.55;;
23068;SDS011;11702;50.856;4.348;2023-04-10T15:05:13;8.20;;;3.08;;
23068;SDS011;11702;50.856;4.348;2023-04-10T15:07:40;4.82;;;2.85;;
23068;SDS011;11702;50.856;4.348;2023-04-10T15:10:07;3.25;;;2.53;;
23068;SDS011;11702;50.856;4.348;2023-04-10T15:12:34;5.50;;;3.22;;
23068;SDS011;11702;50.856;4.348;2023-04-10T15:15:00;6.57;;;3.00;;
23068;SDS011;11702;50.856;4.348;2023-04-10T15:17:27;7.88;;;3.22;;
23068;SDS011;11702;50.856;4.348;2023-04-10T15:19:55;6.25;;;2.92;;
23068;SDS011;11702;50.856;4.348;2023-04-10T15:22:24;6.50;;;3.33;;
23068;SDS011;11702;50.856;4.348;2023-04-10T15:24:50;4.88;;;3.50;;
23068;SDS011;11702;50.856;4.348;2023-04-10T15:27:19;9.30;;;3.58;;
23068;SDS011;11702;50.856;4.348;2023-04-10T15:29:45;5.95;;;3.53;;
23068;SDS011;11702;50.856;4.348;2023-04-10T15:32:11;8.05;;;3.83;;
23068;SDS011;11702;50.856;4.348;2023-04-10T15:34:36;6.97;;;4.10;;
23068;SDS011;11702;50.856;4.348;2023-04-10T15:37:02;4.68;;;4.10;;
23068;SDS011;11702;50.856;4.348;2023-04-10T15:39:28;9.60;;;4.80;;
23068;SDS011;11702;50.856;4.348;2023-04-10T15:41:55;6.30;;;5.05;;
23068;SDS011;11702;50.856;4.348;2023-04-10T15:44:24;7.10;;;5.38;;
23068;SDS011;11702;50.856;4.348;2023-04-10T15:46:50;8.18;;;5.15;;
23068;SDS011;11702;50.856;4.348;2023-04-10T15:49:17;9.85;;;6.10;;
23068;SDS011;11702;50.856;4.348;2023-04-10T15:51:43;8.20;;;6.22;;
23068;SDS011;11702;50.856;4.348;2023-04-10T15:54:10;9.63;;;6.70;;
23068;SDS011;11702;50.856;4.348;2023-04-10T15:56:35;10.68;;;6.82;;
23068;SDS011;11702;50.856;4.348;2023-04-10T15:59:01;8.32;;;5.90;;
23068;SDS011;11702;50.856;4.348;2023-04-10T16:01:27;10.00;;;6.57;;
23068;SDS011;11702;50.856;4.348;2023-04-10T16:03:52;9.15;;;6.55;;
23068;SDS011;11702;50.856;4.348;2023-04-10T16:06:18;9.57;;;6.88;;
23068;SDS011;11702;50.856;4.348;2023-04-10T16:08:43;13.60;;;7.13;;
23068;SDS011;11702;50.856;4.348;2023-04-10T16:11:09;9.52;;;7.22;;
23068;SDS011;11702;50.856;4.348;2023-04-10T16:13:35;10.98;;;7.80;;
23068;SDS011;11702;50.856;4.348;2023-04-10T16:16:00;9.00;;;7.47;;
23068;SDS011;11702;50.856;4.348;2023-04-10T16:18:26;11.07;;;7.80;;
23068;SDS011;11702;50.856;4.348;2023-04-10T16:20:52;12.15;;;7.45;;
23068;SDS011;11702;50.856;4.348;2023-04-10T16:23:17;16.35;;;7.78;;
23068;SDS011;11702;50.856;4.348;2023-04-10T16:25:46;9.57;;;6.75;;
23068;SDS011;11702;50.856;4.348;2023-04-10T16:28:12;9.38;;;6.45;;
23068;SDS011;11702;50.856;4.348;2023-04-10T16:30:37;10.93;;;5.68;;
23068;SDS011;11702;50.856;4.348;2023-04-10T16:33:04;9.02;;;5.88;;
23068;SDS011;11702;50.856;4.348;2023-04-10T16:35:29;8.00;;;4.43;;
23068;SDS011;11702;50.856;4.348;2023-04-10T16:37:55;8.35;;;5.07;;
23068;SDS011;11702;50.856;4.348;2023-04-10T16:40:21;7.97;;;5.00;;
23068;SDS011;11702;50.856;4.348;2023-04-10T16:42:47;8.57;;;6.13;;
23068;SDS011;11702;50.856;4.348;2023-04-10T16:45:13;10.43;;;6.80;;
23068;SDS011;11702;50.856;4.348;2023-04-10T16:47:40;8.95;;;6.97;;
23068;SDS011;11702;50.856;4.348;2023-04-10T16:50:08;11.40;;;6.65;;
23068;SDS011;11702;50.856;4.348;2023-04-10T16:52:34;7.25;;;5.80;;
23068;SDS011;11702;50.856;4.348;2023-04-10T16:55:01;7.95;;;6.43;;
23068;SDS011;11702;50.856;4.348;2023-04-10T16:57:26;11.45;;;6.07;;
23068;SDS011;11702;50.856;4.348;2023-04-10T16:59:55;11.13;;;5.85;;
23068;SDS011;11702;50.856;4.348;2023-04-10T17:02:23;10.80;;;5.00;;
23068;SDS011;11702;50.856;4.348;2023-04-10T17:04:49;8.00;;;3.88;;
23068;SDS011;11702;50.856;4.348;2023-04-10T17:07:15;5.15;;;2.83;;
23068;SDS011;11702;50.856;4.348;2023-04-10T17:09:41;7.82;;;3.55;;
23068;SDS011;11702;50.856;4.348;2023-04-10T17:12:06;7.00;;;3.55;;
23068;SDS011;11702;50.856;4.348;2023-04-10T17:14:32;8.82;;;3.47;;
23068;SDS011;11702;50.856;4.348;2023-04-10T17:16:58;4.50;;;3.22;;
23068;SDS011;11702;50.856;4.348;2023-04-10T17:19:23;6.35;;;3.80;;
23068;SDS011;11702;50.856;4.348;2023-04-10T17:21:49;6.65;;;3.88;;
23068;SDS011;11702;50.856;4.348;2023-04-10T17:24:16;7.38;;;3.97;;
23068;SDS011;11702;50.856;4.348;2023-04-10T17:26:43;9.05;;;4.18;;
23068;SDS011;11702;50.856;4.348;2023-04-10T17:29:08;7.50;;;4.50;;
23068;SDS011;11702;50.856;4.348;2023-04-10T17:31:34;7.35;;;4.05;;
23068;SDS011;11702;50.856;4.348;2023-04-10T17:34:00;8.60;;;3.97;;
23068;SDS011;11702;50.856;4.348;2023-04-10T17:36:27;7.03;;;3.78;;
23068;SDS011;11702;50.856;4.348;2023-04-10T17:38:53;5.25;;;3.63;;
23068;SDS011;11702;50.856;4.348;2023-04-10T17:41:19;4.40;;;2.67;;
23068;SDS011;11702;50.856;4.348;2023-04-10T17:43:45;7.70;;;3.05;;
23068;SDS011;11702;50.856;4.348;2023-04-10T17:46:11;6.53;;;3.20;;
23068;SDS011;11702;50.856;4.348;2023-04-10T17:48:41;9.05;;;3.47;;
23068;SDS011;11702;50.856;4.348;2023-04-10T17:51:07;6.80;;;3.17;;
23068;SDS011;11702;50.856;4.348;2023-04-10T17:53:32;6.55;;;2.63;;
23068;SDS011;11702;50.856;4.348;2023-04-10T17:55:58;5.53;;;2.88;;
23068;SDS011;11702;50.856;4.348;2023-04-10T17:58:24;6.75;;;2.95;;
23068;SDS011;11702;50.856;4.348;2023-04-10T18:00:49;9.20;;;3.28;;
23068;SDS011;11702;50.856;4.348;2023-04-10T18:03:15;7.28;;;3.42;;
23068;SDS011;11702;50.856;4.348;2023-04-10T18:05:41;7.18;;;3.20;;
23068;SDS011;11702;50.856;4.348;2023-04-10T18:08:06;5.53;;;3.40;;
23068;SDS011;11702;50.856;4.348;2023-04-10T18:10:32;7.10;;;3.30;;
23068;SDS011;11702;50.856;4.348;2023-04-10T18:12:59;5.43;;;2.80;;
23068;SDS011;11702;50.856;4.348;2023-04-10T18:15:24;4.85;;;2.55;;
23068;SDS011;11702;50.856;4.348;2023-04-10T18:17:50;9.30;;;3.03;;
23068;SDS011;11702;50.856;4.348;2023-04-10T18:20:17;4.93;;;2.85;;
23068;SDS011;11702;50.856;4.348;2023-04-10T18:22:43;5.80;;;3.10;;
23068;SDS011;11702;50.856;4.348;2023-04-10T18:25:10;6.78;;;3.40;;
23068;SDS011;11702;50.856;4.348;2023-04-10T18:27:39;10.38;;;3.70;;
23068;SDS011;11702;50.856;4.348;2023-04-10T18:30:05;8.30;;;3.33;;
23068;SDS011;11702;50.856;4.348;2023-04-10T18:32:32;9.82;;;3.95;;
23068;SDS011;11702;50.856;4.348;2023-04-10T18:34:57;9.20;;;3.58;;
23068;SDS011;11702;50.856;4.348;2023-04-10T18:37:23;12.48;;;4.10;;
23068;SDS011;11702;50.856;4.348;2023-04-10T18:39:49;14.77;;;4.05;;
23068;SDS011;11702;50.856;4.348;2023-04-10T18:42:15;8.65;;;3.40;;
23068;SDS011;11702;50.856;4.348;2023-04-10T18:44:40;9.07;;;4.05;;
23068;SDS011;11702;50.856;4.348;2023-04-10T18:47:06;14.55;;;4.15;;
23068;SDS011;11702;50.856;4.348;2023-04-10T18:49:31;9.18;;;3.72;;
23068;SDS011;11702;50.856;4.348;2023-04-10T18:51:57;10.55;;;4.75;;
23068;SDS011;11702;50.856;4.348;2023-04-10T18:54:23;14.38;;;4.85;;
23068;SDS011;11702;50.856;4.348;2023-04-10T18:56:51;11.68;;;4.90;;
23068;SDS011;11702;50.856;4.348;2023-04-10T18:59:16;17.17;;;4.78;;
23068;SDS011;11702;50.856;4.348;2023-04-10T19:01:42;15.55;;;5.88;;
23068;SDS011;11702;50.856;4.348;2023-04-10T19:04:07;12.50;;;4.93;;
23068;SDS011;11702;50.856;4.348;2023-04-10T19:06:33;14.82;;;5.28;;
23068;SDS011;11702;50.856;4.348;2023-04-10T19:09:00;18.20;;;6.95;;
23068;SDS011;11702;50.856;4.348;2023-04-10T19:11:26;19.85;;;7.50;;
23068;SDS011;11702;50.856;4.348;2023-04-10T19:13:51;18.95;;;7.03;;
23068;SDS011;11702;50.856;4.348;2023-04-10T19:16:17;20.02;;;8.07;;
23068;SDS011;11702;50.856;4.348;2023-04-10T19:18:44;19.80;;;8.93;;
23068;SDS011;11702;50.856;4.348;2023-04-10T19:21:13;18.75;;;7.13;;
23068;SDS011;11702;50.856;4.348;2023-04-10T19:23:39;21.85;;;6.72;;
23068;SDS011;11702;50.856;4.348;2023-04-10T19:26:04;15.85;;;6.80;;
23068;SDS011;11702;50.856;4.348;2023-04-10T19:28:31;18.85;;;6.45;;
23068;SDS011;11702;50.856;4.348;2023-04-10T19:30:58;15.55;;;6.28;;
23068;SDS011;11702;50.856;4.348;2023-04-10T19:33:24;18.83;;;6.53;;
23068;SDS011;11702;50.856;4.348;2023-04-10T19:35:50;18.92;;;6.72;;
23068;SDS011;11702;50.856;4.348;2023-04-10T19:38:16;14.20;;;6.20;;
23068;SDS011;11702;50.856;4.348;2023-04-10T19:40:42;19.98;;;6.82;;
23068;SDS011;11702;50.856;4.348;2023-04-10T19:43:08;18.92;;;6.20;;
23068;SDS011;11702;50.856;4.348;2023-04-10T19:45:37;14.32;;;6.28;;
23068;SDS011;11702;50.856;4.348;2023-04-10T19:48:03;16.02;;;5.93;;
23068;SDS011;11702;50.856;4.348;2023-04-10T19:50:29;14.85;;;5.25;;
23068;SDS011;11702;50.856;4.348;2023-04-10T19:52:55;16.10;;;5.47;;
23068;SDS011;11702;50.856;4.348;2023-04-10T19:55:21;20.05;;;6.20;;
23068;SDS011;11702;50.856;4.348;2023-04-10T19:57:48;15.00;;;5.57;;